sensor_id;sensor_type;location;lat;lon;timestamp;pressure;altitude;pressure_sealevel;temperature;humidity
71043;BME280;58696;52.134;5.500;2023-07-16T00:00:20;100906.97;;;16.60;70.46
71043;BME280;58696;52.134;5.500;2023-07-16T00:02:50;100910.25;;;16.67;70.02
71043;BME280;58696;52.134;5.500;2023-07-16T00:05:16;100916.31;;;16.79;69.48
71043;BME280;58696;52.134;5.500;2023-07-16T00:07:43;100909.78;;;16.88;69.23
71043;BME280;58696;52.134;5.500;2023-07-16T00:10:10;100911.72;;;16.93;68.93
71043;BME280;58696;52.134;5.500;2023-07-16T00:12:37;100918.72;;;16.92;68.52
71043;BME280;58696;52.134;5.500;2023-07-16T00:15:06;100923.00;;;16.87;68.70
71043;BME280;58696;52.134;5.500;2023-07-16T00:17:35;100913.72;;;16.79;68.49
71043;BME280;58696;52.134;5.500;2023-07-16T00:20:07;100907.16;;;16.76;68.02
71043;BME280;58696;52.134;5.500;2023-07-16T00:22:36;100911.38;;;16.89;67.25
71043;BME280;58696;52.134;5.500;2023-07-16T00:25:06;100913.97;;;16.89;67.17
71043;BME280;58696;52.134;5.500;2023-07-16T00:27:33;100913.66;;;16.86;67.53
71043;BME280;58696;52.134;5.500;2023-07-16T00:30:03;100913.94;;;16.77;67.80
71043;BME280;58696;52.134;5.500;2023-07-16T00:32:32;100914.59;;;16.73;67.94
71043;BME280;58696;52.134;5.500;2023-07-16T00:35:00;100914.88;;;16.65;67.95
71043;BME280;58696;52.134;5.500;2023-07-16T00:37:27;100923.47;;;16.65;68.08
71043;BME280;58696;52.134;5.500;2023-07-16T00:39:54;100920.63;;;16.67;67.86
71043;BME280;58696;52.134;5.500;2023-07-16T00:42:21;100913.88;;;16.66;68.20
71043;BME280;58696;52.134;5.500;2023-07-16T00:44:50;100925.03;;;16.66;68.06
71043;BME280;58696;52.134;5.500;2023-07-16T00:47:21;100926.72;;;16.61;68.21
71043;BME280;58696;52.134;5.500;2023-07-16T00:49:48;100927.50;;;16.61;68.42
71043;BME280;58696;52.134;5.500;2023-07-16T00:52:19;100921.16;;;16.57;68.41
71043;BME280;58696;52.134;5.500;2023-07-16T00:54:49;100921.59;;;16.54;68.69
71043;BME280;58696;52.134;5.500;2023-07-16T00:57:16;100924.84;;;16.49;69.06
71043;BME280;58696;52.134;5.500;2023-07-16T00:59:44;100934.66;;;16.47;68.79
71043;BME280;58696;52.134;5.500;2023-07-16T01:02:16;100934.06;;;16.45;68.76
71043;BME280;58696;52.134;5.500;2023-07-16T01:04:45;100933.38;;;16.38;69.22
71043;BME280;58696;52.134;5.500;2023-07-16T01:07:19;100926.94;;;16.41;68.92
71043;BME280;58696;52.134;5.500;2023-07-16T01:09:51;100935.66;;;16.46;69.07
71043;BME280;58696;52.134;5.500;2023-07-16T01:12:20;100930.69;;;16.45;68.97
71043;BME280;58696;52.134;5.500;2023-07-16T01:14:49;100933.28;;;16.45;68.91
71043;BME280;58696;52.134;5.500;2023-07-16T01:17:17;100931.94;;;16.42;69.34
71043;BME280;58696;52.134;5.500;2023-07-16T01:19:45;100920.31;;;16.45;69.14
71043;BME280;58696;52.134;5.500;2023-07-16T01:25:01;100928.88;;;16.45;69.24
71043;BME280;58696;52.134;5.500;2023-07-16T01:30:11;100924.16;;;16.42;69.70
71043;BME280;58696;52.134;5.500;2023-07-16T01:32:42;100922.53;;;16.41;69.76
71043;BME280;58696;52.134;5.500;2023-07-16T01:35:13;100920.19;;;16.40;69.58
71043;BME280;58696;52.134;5.500;2023-07-16T01:37:41;100922.53;;;16.41;69.63
71043;BME280;58696;52.134;5.500;2023-07-16T01:40:08;100924.34;;;16.41;69.25
71043;BME280;58696;52.134;5.500;2023-07-16T01:42:39;100918.59;;;16.39;69.57
71043;BME280;58696;52.134;5.500;2023-07-16T01:45:08;100920.63;;;16.37;69.62
71043;BME280;58696;52.134;5.500;2023-07-16T01:50:26;100917.66;;;16.33;70.11
71043;BME280;58696;52.134;5.500;2023-07-16T01:52:57;100922.28;;;16.31;69.79
71043;BME280;58696;52.134;5.500;2023-07-16T01:55:23;100925.22;;;16.35;69.79
71043;BME280;58696;52.134;5.500;2023-07-16T01:57:50;100919.25;;;16.34;69.92
71043;BME280;58696;52.134;5.500;2023-07-16T02:00:17;100923.09;;;16.32;70.16
71043;BME280;58696;52.134;5.500;2023-07-16T02:02:49;100931.66;;;16.32;70.19
71043;BME280;58696;52.134;5.500;2023-07-16T02:05:18;100921.47;;;16.30;70.44
71043;BME280;58696;52.134;5.500;2023-07-16T02:07:47;100925.72;;;16.25;70.29
71043;BME280;58696;52.134;5.500;2023-07-16T02:10:16;100931.78;;;16.19;70.82
71043;BME280;58696;52.134;5.500;2023-07-16T02:12:43;100923.06;;;16.13;71.08
71043;BME280;58696;52.134;5.500;2023-07-16T02:15:10;100924.66;;;16.14;71.26
71043;BME280;58696;52.134;5.500;2023-07-16T02:17:36;100924.47;;;16.16;71.33
71043;BME280;58696;52.134;5.500;2023-07-16T02:20:07;100927.69;;;16.11;71.43
71043;BME280;58696;52.134;5.500;2023-07-16T02:22:40;100926.69;;;16.12;71.77
71043;BME280;58696;52.134;5.500;2023-07-16T02:25:06;100919.91;;;16.11;71.84
71043;BME280;58696;52.134;5.500;2023-07-16T02:27:33;100913.94;;;16.11;71.85
71043;BME280;58696;52.134;5.500;2023-07-16T02:30:02;100922.59;;;16.04;72.09
71043;BME280;58696;52.134;5.500;2023-07-16T02:32:34;100929.13;;;16.07;72.17
71043;BME280;58696;52.134;5.500;2023-07-16T02:35:02;100931.94;;;16.06;72.24
71043;BME280;58696;52.134;5.500;2023-07-16T02:37:29;100934.75;;;16.04;72.44
71043;BME280;58696;52.134;5.500;2023-07-16T02:39:58;100936.97;;;16.00;72.88
71043;BME280;58696;52.134;5.500;2023-07-16T02:42:27;100927.16;;;16.02;72.85
71043;BME280;58696;52.134;5.500;2023-07-16T02:44:53;100932.34;;;16.02;73.09
71043;BME280;58696;52.134;5.500;2023-07-16T02:47:20;100935.09;;;16.08;72.79
71043;BME280;58696;52.134;5.500;2023-07-16T02:49:50;100926.75;;;16.06;73.18
71043;BME280;58696;52.134;5.500;2023-07-16T02:52:18;100924.66;;;16.14;72.91
71043;BME280;58696;52.134;5.500;2023-07-16T02:54:45;100935.75;;;16.21;72.95
71043;BME280;58696;52.134;5.500;2023-07-16T02:57:15;100945.13;;;16.22;73.09
71043;BME280;58696;52.134;5.500;2023-07-16T02:59:47;100936.91;;;16.25;72.84
71043;BME280;58696;52.134;5.500;2023-07-16T03:02:18;100939.47;;;16.25;72.58
71043;BME280;58696;52.134;5.500;2023-07-16T03:04:44;100939.56;;;16.19;72.95
71043;BME280;58696;52.134;5.500;2023-07-16T03:07:13;100934.09;;;16.09;73.38
71043;BME280;58696;52.134;5.500;2023-07-16T03:09:40;100948.34;;;15.99;73.43
71043;BME280;58696;52.134;5.500;2023-07-16T03:12:07;100947.03;;;15.90;73.87
71043;BME280;58696;52.134;5.500;2023-07-16T03:14:34;100943.28;;;15.86;73.96
71043;BME280;58696;52.134;5.500;2023-07-16T03:17:05;100944.75;;;15.82;74.00
71043;BME280;58696;52.134;5.500;2023-07-16T03:19:33;100944.59;;;15.77;73.87
71043;BME280;58696;52.134;5.500;2023-07-16T03:22:01;100939.34;;;15.84;74.24
71043;BME280;58696;52.134;5.500;2023-07-16T03:24:29;100947.09;;;15.84;74.12
71043;BME280;58696;52.134;5.500;2023-07-16T03:26:55;100950.13;;;15.81;74.34
71043;BME280;58696;52.134;5.500;2023-07-16T03:29:43;100951.75;;;15.75;74.20
71043;BME280;58696;52.134;5.500;2023-07-16T03:32:09;100953.78;;;15.73;73.83
71043;BME280;58696;52.134;5.500;2023-07-16T03:34:36;100948.94;;;15.76;74.20
71043;BME280;58696;52.134;5.500;2023-07-16T03:37:05;100954.56;;;15.73;74.54
71043;BME280;58696;52.134;5.500;2023-07-16T03:39:34;100949.97;;;15.75;74.77
71043;BME280;58696;52.134;5.500;2023-07-16T03:42:00;100953.19;;;15.71;74.67
71043;BME280;58696;52.134;5.500;2023-07-16T03:44:29;100956.94;;;15.75;74.68
71043;BME280;58696;52.134;5.500;2023-07-16T03:46:59;100959.53;;;15.75;74.81
71043;BME280;58696;52.134;5.500;2023-07-16T03:49:26;100967.31;;;15.75;74.87
71043;BME280;58696;52.134;5.500;2023-07-16T03:51:55;100969.91;;;15.75;74.81
71043;BME280;58696;52.134;5.500;2023-07-16T03:54:22;100968.41;;;15.86;74.93
71043;BME280;58696;52.134;5.500;2023-07-16T03:56:48;100967.22;;;15.88;74.91
71043;BME280;58696;52.134;5.500;2023-07-16T03:59:17;100970.75;;;15.94;74.38
71043;BME280;58696;52.134;5.500;2023-07-16T04:01:46;100974.47;;;15.98;74.50
71043;BME280;58696;52.134;5.500;2023-07-16T04:04:13;100986.63;;;15.97;74.46
71043;BME280;58696;52.134;5.500;2023-07-16T04:06:42;100993.06;;;15.95;74.44
71043;BME280;58696;52.134;5.500;2023-07-16T04:09:09;100994.06;;;15.94;74.06
71043;BME280;58696;52.134;5.500;2023-07-16T04:11:38;100998.03;;;15.96;73.80
71043;BME280;58696;52.134;5.500;2023-07-16T04:14:11;100989.22;;;15.97;74.06
71043;BME280;58696;52.134;5.500;2023-07-16T04:16:38;100991.25;;;15.95;74.22
71043;BME280;58696;52.134;5.500;2023-07-16T04:19:04;100996.06;;;15.92;74.32
71043;BME280;58696;52.134;5.500;2023-07-16T04:21:34;100990.31;;;15.90;74.57
71043;BME280;58696;52.134;5.500;2023-07-16T04:24:05;101000.69;;;15.90;74.75
71043;BME280;58696;52.134;5.500;2023-07-16T04:26:32;100998.66;;;15.92;74.43
71043;BME280;58696;52.134;5.500;2023-07-16T04:29:01;101002.63;;;15.94;74.40
71043;BME280;58696;52.134;5.500;2023-07-16T04:31:27;101014.97;;;15.99;74.23
71043;BME280;58696;52.134;5.500;2023-07-16T04:33:59;101010.34;;;16.01;73.50
71043;BME280;58696;52.134;5.500;2023-07-16T04:36:25;101019.50;;;16.03;73.91
71043;BME280;58696;52.134;5.500;2023-07-16T04:38:54;101021.66;;;16.07;74.08
71043;BME280;58696;52.134;5.500;2023-07-16T04:41:21;101016.47;;;16.07;73.42
71043;BME280;58696;52.134;5.500;2023-07-16T04:43:53;101029.59;;;16.12;73.17
71043;BME280;58696;52.134;5.500;2023-07-16T04:46:19;101019.78;;;16.14;73.49
71043;BME280;58696;52.134;5.500;2023-07-16T04:48:48;101020.03;;;16.12;73.55
71043;BME280;58696;52.134;5.500;2023-07-16T04:51:17;101030.16;;;16.14;73.63
71043;BME280;58696;52.134;5.500;2023-07-16T04:53:44;101027.78;;;16.12;73.50
71043;BME280;58696;52.134;5.500;2023-07-16T04:56:14;101027.94;;;16.17;73.03
71043;BME280;58696;52.134;5.500;2023-07-16T04:58:44;101030.91;;;16.21;73.33
71043;BME280;58696;52.134;5.500;2023-07-16T05:01:11;101035.88;;;16.22;72.62
71043;BME280;58696;52.134;5.500;2023-07-16T05:03:42;101038.41;;;16.29;72.71
71043;BME280;58696;52.134;5.500;2023-07-16T05:06:09;101033.59;;;16.33;72.50
71043;BME280;58696;52.134;5.500;2023-07-16T05:08:35;101034.09;;;16.41;72.23
71043;BME280;58696;52.134;5.500;2023-07-16T05:11:02;101031.94;;;16.93;70.51
71043;BME280;58696;52.134;5.500;2023-07-16T05:13:29;101031.31;;;18.40;66.20
71043;BME280;58696;52.134;5.500;2023-07-16T05:15:56;101034.41;;;19.34;65.02
71043;BME280;58696;52.134;5.500;2023-07-16T05:18:26;101027.34;;;19.97;60.42
71043;BME280;58696;52.134;5.500;2023-07-16T05:20:55;101034.72;;;20.44;58.75
71043;BME280;58696;52.134;5.500;2023-07-16T05:23:24;101038.72;;;20.68;58.07
71043;BME280;58696;52.134;5.500;2023-07-16T05:25:58;101039.09;;;21.04;55.93
71043;BME280;58696;52.134;5.500;2023-07-16T05:28:25;101036.63;;;21.19;56.21
71043;BME280;58696;52.134;5.500;2023-07-16T05:30:59;101032.28;;;21.30;55.98
71043;BME280;58696;52.134;5.500;2023-07-16T05:33:25;101042.50;;;21.64;54.24
71043;BME280;58696;52.134;5.500;2023-07-16T05:35:59;101047.06;;;21.78;53.38
71043;BME280;58696;52.134;5.500;2023-07-16T05:38:26;101051.94;;;22.02;52.81
71043;BME280;58696;52.134;5.500;2023-07-16T05:41:00;101058.88;;;22.18;52.54
71043;BME280;58696;52.134;5.500;2023-07-16T05:43:31;101063.13;;;22.29;51.89
71043;BME280;58696;52.134;5.500;2023-07-16T05:46:00;101060.50;;;22.29;51.79
71043;BME280;58696;52.134;5.500;2023-07-16T05:48:27;101068.13;;;22.36;51.65
71043;BME280;58696;52.134;5.500;2023-07-16T05:50:55;101070.34;;;22.65;50.91
71043;BME280;58696;52.134;5.500;2023-07-16T05:53:22;101075.31;;;22.66;50.83
71043;BME280;58696;52.134;5.500;2023-07-16T05:55:51;101077.44;;;22.69;51.06
71043;BME280;58696;52.134;5.500;2023-07-16T05:58:18;101081.50;;;23.02;50.33
71043;BME280;58696;52.134;5.500;2023-07-16T06:00:50;101083.06;;;23.03;49.25
71043;BME280;58696;52.134;5.500;2023-07-16T06:03:17;101087.81;;;23.06;49.85
71043;BME280;58696;52.134;5.500;2023-07-16T06:05:46;101091.00;;;23.44;48.29
71043;BME280;58696;52.134;5.500;2023-07-16T06:08:12;101089.88;;;23.04;48.47
71043;BME280;58696;52.134;5.500;2023-07-16T06:10:39;101094.25;;;22.78;49.49
71043;BME280;58696;52.134;5.500;2023-07-16T06:13:06;101093.81;;;23.02;49.71
71043;BME280;58696;52.134;5.500;2023-07-16T06:15:34;101083.88;;;23.19;49.32
71043;BME280;58696;52.134;5.500;2023-07-16T06:18:02;101097.25;;;23.18;47.63
71043;BME280;58696;52.134;5.500;2023-07-16T06:20:35;101095.44;;;23.28;48.13
71043;BME280;58696;52.134;5.500;2023-07-16T06:23:04;101097.50;;;23.21;48.36
71043;BME280;58696;52.134;5.500;2023-07-16T06:25:30;101101.72;;;23.17;48.55
71043;BME280;58696;52.134;5.500;2023-07-16T06:27:59;101097.31;;;24.04;47.56
71043;BME280;58696;52.134;5.500;2023-07-16T06:30:28;101106.19;;;24.24;45.41
71043;BME280;58696;52.134;5.500;2023-07-16T06:32:57;101094.13;;;24.02;47.70
71043;BME280;58696;52.134;5.500;2023-07-16T06:35:29;101104.03;;;24.51;46.59
71043;BME280;58696;52.134;5.500;2023-07-16T06:37:55;101106.72;;;24.36;45.32
71043;BME280;58696;52.134;5.500;2023-07-16T06:40:24;101113.06;;;23.94;47.08
71043;BME280;58696;52.134;5.500;2023-07-16T06:42:57;101116.19;;;24.11;45.91
71043;BME280;58696;52.134;5.500;2023-07-16T06:45:30;101114.13;;;23.78;47.13
71043;BME280;58696;52.134;5.500;2023-07-16T06:48:00;101118.53;;;24.13;47.76
71043;BME280;58696;52.134;5.500;2023-07-16T06:50:31;101115.88;;;24.28;45.76
71043;BME280;58696;52.134;5.500;2023-07-16T06:53:02;101104.63;;;24.12;46.71
71043;BME280;58696;52.134;5.500;2023-07-16T06:55:31;101100.13;;;24.38;46.04
71043;BME280;58696;52.134;5.500;2023-07-16T06:57:58;101101.88;;;24.69;44.96
71043;BME280;58696;52.134;5.500;2023-07-16T07:00:26;101103.19;;;24.61;46.03
71043;BME280;58696;52.134;5.500;2023-07-16T07:02:56;101107.72;;;24.45;45.04
71043;BME280;58696;52.134;5.500;2023-07-16T07:05:22;101114.28;;;24.58;46.24
71043;BME280;58696;52.134;5.500;2023-07-16T07:07:49;101115.84;;;24.59;46.47
71043;BME280;58696;52.134;5.500;2023-07-16T07:10:18;101121.69;;;25.00;46.01
71043;BME280;58696;52.134;5.500;2023-07-16T07:12:50;101115.47;;;24.86;45.34
71043;BME280;58696;52.134;5.500;2023-07-16T07:15:19;101128.84;;;24.84;46.13
71043;BME280;58696;52.134;5.500;2023-07-16T07:17:53;101126.38;;;24.33;46.77
71043;BME280;58696;52.134;5.500;2023-07-16T07:20:20;101141.88;;;23.53;48.29
71043;BME280;58696;52.134;5.500;2023-07-16T07:22:47;101141.16;;;23.83;48.60
71043;BME280;58696;52.134;5.500;2023-07-16T07:25:13;101138.91;;;23.04;50.88
71043;BME280;58696;52.134;5.500;2023-07-16T07:27:40;101154.06;;;22.92;49.35
71043;BME280;58696;52.134;5.500;2023-07-16T07:30:07;101147.22;;;22.38;52.00
71043;BME280;58696;52.134;5.500;2023-07-16T07:32:37;101151.03;;;22.20;53.49
71043;BME280;58696;52.134;5.500;2023-07-16T07:35:11;101169.69;;;22.76;50.92
71043;BME280;58696;52.134;5.500;2023-07-16T07:37:38;101152.03;;;21.55;53.16
71043;BME280;58696;52.134;5.500;2023-07-16T07:40:10;101158.75;;;22.05;52.59
71043;BME280;58696;52.134;5.500;2023-07-16T07:42:37;101171.34;;;22.45;52.54
71043;BME280;58696;52.134;5.500;2023-07-16T07:45:04;101161.31;;;21.68;52.88
71043;BME280;58696;52.134;5.500;2023-07-16T07:47:33;101149.50;;;21.92;52.15
71043;BME280;58696;52.134;5.500;2023-07-16T07:50:02;101164.19;;;22.73;52.47
71043;BME280;58696;52.134;5.500;2023-07-16T07:52:29;101159.97;;;22.24;53.82
71043;BME280;58696;52.134;5.500;2023-07-16T07:54:55;101165.06;;;21.50;56.00
71043;BME280;58696;52.134;5.500;2023-07-16T07:57:23;101168.28;;;21.13;57.46
71043;BME280;58696;52.134;5.500;2023-07-16T07:59:50;101173.50;;;20.91;57.10
71043;BME280;58696;52.134;5.500;2023-07-16T08:02:24;101175.88;;;20.54;58.94
71043;BME280;58696;52.134;5.500;2023-07-16T08:04:51;101180.31;;;20.37;59.69
71043;BME280;58696;52.134;5.500;2023-07-16T08:07:23;101187.97;;;20.27;59.71
71043;BME280;58696;52.134;5.500;2023-07-16T08:09:52;101193.69;;;20.23;61.01
71043;BME280;58696;52.134;5.500;2023-07-16T08:12:19;101189.72;;;20.21;59.59
71043;BME280;58696;52.134;5.500;2023-07-16T08:14:48;101182.31;;;20.46;60.86
71043;BME280;58696;52.134;5.500;2023-07-16T08:17:16;101181.41;;;20.96;59.01
71043;BME280;58696;52.134;5.500;2023-07-16T08:19:51;101193.88;;;20.89;58.14
71043;BME280;58696;52.134;5.500;2023-07-16T08:22:21;101192.63;;;20.75;60.54
71043;BME280;58696;52.134;5.500;2023-07-16T08:24:51;101201.69;;;20.67;59.11
71043;BME280;58696;52.134;5.500;2023-07-16T08:27:18;101192.19;;;20.44;58.65
71043;BME280;58696;52.134;5.500;2023-07-16T08:29:46;101209.59;;;20.39;60.56
71043;BME280;58696;52.134;5.500;2023-07-16T08:32:15;101197.16;;;20.29;59.31
71043;BME280;58696;52.134;5.500;2023-07-16T08:34:41;101208.22;;;20.36;60.27
71043;BME280;58696;52.134;5.500;2023-07-16T08:37:08;101209.50;;;20.34;59.32
71043;BME280;58696;52.134;5.500;2023-07-16T08:39:34;101207.19;;;20.20;60.87
71043;BME280;58696;52.134;5.500;2023-07-16T08:42:01;101219.91;;;20.17;60.91
71043;BME280;58696;52.134;5.500;2023-07-16T08:44:29;101218.50;;;20.09;61.88
71043;BME280;58696;52.134;5.500;2023-07-16T08:46:56;101220.75;;;19.89;61.38
71043;BME280;58696;52.134;5.500;2023-07-16T08:49:25;101228.38;;;19.79;62.48
71043;BME280;58696;52.134;5.500;2023-07-16T08:51:51;101232.03;;;19.78;61.55
71043;BME280;58696;52.134;5.500;2023-07-16T08:54:22;101233.22;;;19.70;62.16
71043;BME280;58696;52.134;5.500;2023-07-16T08:56:48;101230.97;;;19.50;61.79
71043;BME280;58696;52.134;5.500;2023-07-16T08:59:16;101235.38;;;19.50;62.21
71043;BME280;58696;52.134;5.500;2023-07-16T09:01:51;101229.63;;;19.48;62.44
71043;BME280;58696;52.134;5.500;2023-07-16T09:04:17;101238.88;;;19.55;63.21
71043;BME280;58696;52.134;5.500;2023-07-16T09:06:44;101243.84;;;19.80;62.49
71043;BME280;58696;52.134;5.500;2023-07-16T09:09:23;101238.91;;;19.95;62.88
71043;BME280;58696;52.134;5.500;2023-07-16T09:11:53;101243.66;;;20.15;63.36
71043;BME280;58696;52.134;5.500;2023-07-16T09:14:23;101243.16;;;20.47;60.76
71043;BME280;58696;52.134;5.500;2023-07-16T09:16:52;101248.03;;;20.60;60.84
71043;BME280;58696;52.134;5.500;2023-07-16T09:19:25;101247.25;;;20.77;60.54
71043;BME280;58696;52.134;5.500;2023-07-16T09:21:57;101244.47;;;20.83;61.05
71043;BME280;58696;52.134;5.500;2023-07-16T09:24:23;101256.19;;;20.64;60.23
71043;BME280;58696;52.134;5.500;2023-07-16T09:26:56;101256.53;;;20.22;60.43
71043;BME280;58696;52.134;5.500;2023-07-16T09:29:25;101266.41;;;20.03;61.29
71043;BME280;58696;52.134;5.500;2023-07-16T09:32:00;101271.84;;;19.85;61.16
71043;BME280;58696;52.134;5.500;2023-07-16T09:34:31;101270.47;;;19.82;62.53
71043;BME280;58696;52.134;5.500;2023-07-16T09:36:59;101272.81;;;19.95;61.80
71043;BME280;58696;52.134;5.500;2023-07-16T09:39:31;101273.25;;;19.92;61.63
71043;BME280;58696;52.134;5.500;2023-07-16T09:42:01;101281.41;;;20.25;61.09
71043;BME280;58696;52.134;5.500;2023-07-16T09:44:29;101265.31;;;20.61;60.55
71043;BME280;58696;52.134;5.500;2023-07-16T09:46:58;101258.41;;;21.27;62.79
71043;BME280;58696;52.134;5.500;2023-07-16T09:49:31;101268.34;;;21.69;60.35
71043;BME280;58696;52.134;5.500;2023-07-16T09:51:57;101261.28;;;21.48;58.78
71043;BME280;58696;52.134;5.500;2023-07-16T09:54:29;101274.97;;;21.16;60.20
71043;BME280;58696;52.134;5.500;2023-07-16T09:56:59;101269.16;;;20.92;61.09
71043;BME280;58696;52.134;5.500;2023-07-16T09:59:29;101285.50;;;20.83;62.05
71043;BME280;58696;52.134;5.500;2023-07-16T10:01:56;101286.03;;;20.85;61.43
71043;BME280;58696;52.134;5.500;2023-07-16T10:04:24;101273.84;;;20.90;60.43
71043;BME280;58696;52.134;5.500;2023-07-16T10:07:02;101271.94;;;20.86;60.49
71043;BME280;58696;52.134;5.500;2023-07-16T10:14:51;101298.97;;;20.29;61.34
71043;BME280;58696;52.134;5.500;2023-07-16T10:17:24;101298.72;;;20.31;61.62
71043;BME280;58696;52.134;5.500;2023-07-16T10:19:57;101298.63;;;20.54;62.98
71043;BME280;58696;52.134;5.500;2023-07-16T10:22:50;101307.53;;;21.09;60.86
71043;BME280;58696;52.134;5.500;2023-07-16T10:27:46;101299.34;;;21.39;59.23
71043;BME280;58696;52.134;5.500;2023-07-16T10:30:15;101306.41;;;21.60;60.56
71043;BME280;58696;52.134;5.500;2023-07-16T10:32:43;101297.59;;;21.66;61.10
71043;BME280;58696;52.134;5.500;2023-07-16T10:35:15;101299.84;;;21.19;60.72
71043;BME280;58696;52.134;5.500;2023-07-16T10:37:41;101313.03;;;20.73;60.62
71043;BME280;58696;52.134;5.500;2023-07-16T10:40:13;101322.41;;;20.41;62.27
71043;BME280;58696;52.134;5.500;2023-07-16T10:42:43;101320.22;;;20.21;61.93
71043;BME280;58696;52.134;5.500;2023-07-16T10:45:12;101324.84;;;20.02;61.57
71043;BME280;58696;52.134;5.500;2023-07-16T10:47:49;101328.50;;;19.89;61.50
71043;BME280;58696;52.134;5.500;2023-07-16T10:50:18;101331.94;;;19.90;61.59
71043;BME280;58696;52.134;5.500;2023-07-16T10:52:52;101339.09;;;20.11;61.53
71043;BME280;58696;52.134;5.500;2023-07-16T10:55:20;101327.13;;;20.44;60.79
71043;BME280;58696;52.134;5.500;2023-07-16T10:57:50;101330.53;;;20.73;61.25
71043;BME280;58696;52.134;5.500;2023-07-16T11:00:21;101337.59;;;20.72;61.25
71043;BME280;58696;52.134;5.500;2023-07-16T11:02:50;101338.66;;;20.77;62.66
71043;BME280;58696;52.134;5.500;2023-07-16T11:05:18;101330.84;;;20.93;62.18
71043;BME280;58696;52.134;5.500;2023-07-16T11:07:51;101353.34;;;20.94;62.31
71043;BME280;58696;52.134;5.500;2023-07-16T11:10:27;101347.13;;;21.17;60.20
71043;BME280;58696;52.134;5.500;2023-07-16T11:12:55;101348.31;;;21.43;60.29
71043;BME280;58696;52.134;5.500;2023-07-16T11:15:34;101343.31;;;22.08;62.27
71043;BME280;58696;52.134;5.500;2023-07-16T11:18:04;101348.94;;;22.43;58.42
71043;BME280;58696;52.134;5.500;2023-07-16T11:20:34;101344.56;;;22.54;59.11
71043;BME280;58696;52.134;5.500;2023-07-16T11:23:03;101345.97;;;22.35;58.20
71043;BME280;58696;52.134;5.500;2023-07-16T11:25:32;101354.34;;;21.88;58.38
71043;BME280;58696;52.134;5.500;2023-07-16T11:28:01;101350.63;;;21.40;59.65
71043;BME280;58696;52.134;5.500;2023-07-16T11:30:30;101351.44;;;21.07;60.15
71043;BME280;58696;52.134;5.500;2023-07-16T11:33:00;101357.00;;;20.93;61.46
71043;BME280;58696;52.134;5.500;2023-07-16T11:35:26;101368.84;;;21.01;61.70
71043;BME280;58696;52.134;5.500;2023-07-16T11:37:54;101362.91;;;20.72;60.43
71043;BME280;58696;52.134;5.500;2023-07-16T11:40:24;101378.00;;;20.53;61.97
71043;BME280;58696;52.134;5.500;2023-07-16T11:42:53;101385.06;;;20.41;62.51
71043;BME280;58696;52.134;5.500;2023-07-16T11:45:26;101377.47;;;20.68;62.67
71043;BME280;58696;52.134;5.500;2023-07-16T11:47:56;101379.63;;;21.38;61.27
71043;BME280;58696;52.134;5.500;2023-07-16T11:50:26;101375.75;;;21.85;63.50
71043;BME280;58696;52.134;5.500;2023-07-16T11:52:54;101379.47;;;21.89;60.28
71043;BME280;58696;52.134;5.500;2023-07-16T11:55:24;101382.75;;;21.57;59.97
71043;BME280;58696;52.134;5.500;2023-07-16T11:57:53;101388.63;;;21.47;60.04
71043;BME280;58696;52.134;5.500;2023-07-16T12:00:25;101377.78;;;22.21;56.77
71043;BME280;58696;52.134;5.500;2023-07-16T12:02:57;101389.00;;;22.17;54.63
71043;BME280;58696;52.134;5.500;2023-07-16T12:05:29;101387.72;;;21.97;59.00
71043;BME280;58696;52.134;5.500;2023-07-16T12:08:18;101399.19;;;22.13;57.75
71043;BME280;58696;52.134;5.500;2023-07-16T12:10:47;101396.22;;;22.10;59.65
71043;BME280;58696;52.134;5.500;2023-07-16T12:13:17;101384.09;;;22.03;59.22
71043;BME280;58696;52.134;5.500;2023-07-16T12:15:44;101384.47;;;21.90;57.38
71043;BME280;58696;52.134;5.500;2023-07-16T12:18:12;101388.50;;;22.20;59.76
71043;BME280;58696;52.134;5.500;2023-07-16T12:20:44;101388.00;;;22.50;58.97
71043;BME280;58696;52.134;5.500;2023-07-16T12:23:10;101376.88;;;22.65;57.66
71043;BME280;58696;52.134;5.500;2023-07-16T12:25:39;101386.63;;;22.69;55.89
71043;BME280;58696;52.134;5.500;2023-07-16T12:28:09;101390.44;;;22.29;55.93
71043;BME280;58696;52.134;5.500;2023-07-16T12:30:38;101397.25;;;22.30;57.12
71043;BME280;58696;52.134;5.500;2023-07-16T12:33:05;101394.78;;;22.19;57.62
71043;BME280;58696;52.134;5.500;2023-07-16T12:35:31;101409.31;;;22.10;55.46
71043;BME280;58696;52.134;5.500;2023-07-16T12:37:58;101402.91;;;22.00;55.51
71043;BME280;58696;52.134;5.500;2023-07-16T12:40:25;101400.66;;;22.09;55.89
71043;BME280;58696;52.134;5.500;2023-07-16T12:42:57;101410.84;;;22.27;58.19
71043;BME280;58696;52.134;5.500;2023-07-16T12:45:29;101397.16;;;22.47;57.04
71043;BME280;58696;52.134;5.500;2023-07-16T12:47:57;101404.53;;;22.82;57.96
71043;BME280;58696;52.134;5.500;2023-07-16T12:50:25;101402.44;;;22.79;54.71
71043;BME280;58696;52.134;5.500;2023-07-16T12:52:56;101392.25;;;22.29;56.92
71043;BME280;58696;52.134;5.500;2023-07-16T12:55:23;101409.00;;;22.82;57.58
71043;BME280;58696;52.134;5.500;2023-07-16T12:57:50;101402.75;;;23.20;55.76
71043;BME280;58696;52.134;5.500;2023-07-16T13:00:17;101413.13;;;23.05;54.29
71043;BME280;58696;52.134;5.500;2023-07-16T13:02:45;101401.03;;;22.99;55.50
71043;BME280;58696;52.134;5.500;2023-07-16T13:05:12;101410.16;;;22.64;55.91
71043;BME280;58696;52.134;5.500;2023-07-16T13:07:39;101415.44;;;22.42;56.49
71043;BME280;58696;52.134;5.500;2023-07-16T13:10:10;101408.06;;;22.66;57.28
71043;BME280;58696;52.134;5.500;2023-07-16T13:12:51;101405.91;;;23.17;55.82
71043;BME280;58696;52.134;5.500;2023-07-16T13:15:21;101407.13;;;23.09;53.52